Time;durP1;ratioP1;P1;durP2;ratioP2;P2;SDS_P1;SDS_P2;PMS_P1;PMS_P2;Temp;Humidity;BMP_temperature;BMP_pressure;BME280_temperature;BME280_humidity;BME280_pressure;Samples;Min_cycle;Max_cycle;Signal;HPM_P1;HPM_P2
2023/03/04 00:01:15;;;;;;;16.52;6.95;;;;;;;6.82;57.57;99960.84;5091971;28;20032;-56
2023/03/04 00:03:40;;;;;;;13.70;7.75;;;;;;;6.78;57.64;99960.88;5092670;28;20040;-56
2023/03/04 00:06:06;;;;;;;10.27;6.90;;;;;;;6.98;57.17;99953.66;5092521;28;20040;-55
2023/03/04 00:08:31;;;;;;;12.73;7.10;;;;;;;6.88;57.39;99955.50;5092486;28;20468;-58
2023/03/04 00:10:57;;;;;;;13.68;8.13;;;;;;;7.02;57.02;99946.63;5093688;28;20028;-55
2023/03/04 00:13:23;;;;;;;13.68;6.90;;;;;;;7.27;56.56;99936.69;5092344;28;20036;-56
2023/03/04 00:15:48;;;;;;;10.68;6.57;;;;;;;7.15;57.04;99949.03;5093690;28;20043;-56
2023/03/04 00:18:14;;;;;;;9.10;6.43;;;;;;;7.16;56.89;99934.22;5093457;28;20043;-54
2023/03/04 00:20:39;;;;;;;14.98;6.97;;;;;;;7.28;56.91;99938.41;5092851;28;20483;-56
2023/03/04 00:23:05;;;;;;;11.38;7.03;;;;;;;7.14;57.21;99955.16;5096665;28;20040;-55
2023/03/04 00:25:30;;;;;;;11.52;6.47;;;;;;;7.28;57.03;99949.72;5095899;28;20077;-57
2023/03/04 00:27:57;;;;;;;13.48;6.40;;;;;;;7.18;57.35;99949.88;5091569;28;20044;-56
2023/03/04 00:30:23;;;;;;;12.05;6.70;;;;;;;7.44;56.76;99944.25;5097717;28;20040;-56
2023/03/04 00:32:48;;;;;;;10.38;6.50;;;;;;;6.91;58.29;99944.16;5098145;28;20039;-56
2023/03/04 00:35:14;;;;;;;14.45;6.30;;;;;;;7.26;57.29;99932.31;5116535;28;20036;-56
2023/03/04 00:37:39;;;;;;;15.85;6.47;;;;;;;7.22;57.65;99928.94;5116605;28;20039;-56
2023/03/04 00:40:05;;;;;;;9.20;6.10;;;;;;;7.13;58.01;99929.91;5116394;28;20047;-56
2023/03/04 00:42:31;;;;;;;10.40;6.13;;;;;;;7.27;57.76;99931.47;5118015;28;20028;-55
2023/03/04 00:44:56;;;;;;;12.10;6.38;;;;;;;7.06;58.38;99917.84;5117656;28;20394;-55
2023/03/04 00:47:22;;;;;;;12.52;6.20;;;;;;;7.30;57.74;99914.00;5116600;28;20538;-55
2023/03/04 00:49:47;;;;;;;11.38;6.30;;;;;;;7.31;57.70;99936.63;5117871;28;20110;-55
2023/03/04 00:52:12;;;;;;;13.55;6.60;;;;;;;7.23;58.01;99908.88;5117796;28;20028;-56
2023/03/04 00:54:38;;;;;;;10.95;6.00;;;;;;;7.40;57.58;99915.56;5096247;28;20405;-55
2023/03/04 00:57:03;;;;;;;12.38;6.03;;;;;;;7.56;57.31;99912.69;5099662;28;20489;-55
2023/03/04 00:59:29;;;;;;;16.73;6.63;;;;;;;7.48;57.52;99899.75;5113305;28;20360;-57
2023/03/04 01:01:54;;;;;;;14.88;6.35;;;;;;;7.26;58.13;99894.03;5090995;28;20027;-57
2023/03/04 01:04:20;;;;;;;13.10;5.95;;;;;;;7.53;57.56;99903.13;5112402;28;20040;-56
2023/03/04 01:06:45;;;;;;;13.15;6.20;;;;;;;7.53;57.47;99897.91;5095658;28;20093;-56
2023/03/04 01:09:11;;;;;;;12.82;5.63;;;;;;;7.56;57.37;99887.41;5097175;28;20032;-55
2023/03/04 01:11:36;;;;;;;9.18;5.22;;;;;;;7.65;57.21;99887.22;5096739;28;20024;-57
2023/03/04 01:14:01;;;;;;;12.07;5.63;;;;;;;7.42;57.61;99894.63;5092934;28;20043;-56
2023/03/04 01:16:27;;;;;;;12.63;5.90;;;;;;;7.43;58.01;99885.91;5096491;28;20043;-56
2023/03/04 01:18:52;;;;;;;15.63;5.65;;;;;;;7.68;57.13;99869.78;5096748;28;20039;-55
2023/03/04 01:21:18;;;;;;;15.07;5.75;;;;;;;7.47;57.67;99879.72;5094915;28;21927;-57
2023/03/04 01:23:43;;;;;;;15.32;6.07;;;;;;;7.27;58.35;99874.84;5091623;28;20474;-56
2023/03/04 01:26:09;;;;;;;13.43;6.05;;;;;;;7.09;58.98;99867.28;5103137;28;20050;-56
2023/03/04 01:28:34;;;;;;;13.20;5.75;;;;;;;7.44;57.96;99871.94;5080074;28;20031;-56
2023/03/04 01:31:03;;;;;;;12.48;5.47;;;;;;;7.70;57.16;99867.97;5110885;28;20471;-57
2023/03/04 01:33:29;;;;;;;12.38;5.85;;;;;;;7.33;58.41;99866.00;5116486;28;20044;-58
2023/03/04 01:35:55;;;;;;;10.55;5.10;;;;;;;7.64;57.51;99850.66;5105244;28;20089;-57
2023/03/04 01:38:21;;;;;;;11.65;5.68;;;;;;;7.78;57.09;99847.78;5113209;28;20124;-56
2023/03/04 01:40:48;;;;;;;16.00;6.07;;;;;;;7.73;57.31;99850.50;5111320;28;20452;-56
2023/03/04 01:43:21;;;;;;;11.48;5.40;;;;;;;7.56;57.75;99845.56;5111861;28;20036;-55
2023/03/04 01:45:51;;;;;;;12.55;5.10;;;;;;;7.55;57.72;99843.84;5111544;28;20118;-56
2023/03/04 01:48:21;;;;;;;11.00;5.30;;;;;;;7.67;57.58;99844.53;5113380;28;20434;-55
2023/03/04 01:50:46;;;;;;;9.25;4.38;;;;;;;7.76;57.05;99833.88;5093190;28;20062;-55
2023/03/04 01:53:31;;;;;;;12.68;5.93;;;;;;;7.48;58.35;99831.78;5090732;28;20471;-56
2023/03/04 01:56:03;;;;;;;11.68;5.03;;;;;;;7.70;57.70;99828.75;5106298;28;20048;-55
2023/03/04 01:58:31;;;;;;;15.85;5.55;;;;;;;7.61;57.85;99830.66;5111289;28;20482;-56
2023/03/04 02:00:57;;;;;;;11.27;4.95;;;;;;;7.71;57.53;99828.75;5105355;28;20471;-56
2023/03/04 02:03:24;;;;;;;12.10;4.50;;;;;;;7.86;57.39;99822.38;5095501;28;20035;-55
2023/03/04 02:05:50;;;;;;;14.38;5.20;;;;;;;7.95;57.06;99827.41;5109965;28;20100;-57
2023/03/04 02:08:19;;;;;;;20.02;5.80;;;;;;;7.31;58.86;99831.22;5111767;28;20390;-57
2023/03/04 02:10:46;;;;;;;12.88;5.22;;;;;;;7.69;57.85;99821.81;5106268;28;20040;-57
2023/03/04 02:13:12;;;;;;;10.55;4.63;;;;;;;7.59;58.18;99798.47;5097694;28;20467;-57
2023/03/04 02:15:38;;;;;;;16.25;4.93;;;;;;;7.75;57.89;99813.88;5097469;28;20494;-57
2023/03/04 02:18:14;;;;;;;13.18;4.90;;;;;;;7.63;58.36;99810.59;5091544;28;20036;-57
2023/03/04 02:21:01;;;;;;;12.52;4.63;;;;;;;7.37;59.19;99802.34;5098908;28;20096;-57
2023/03/04 02:23:53;;;;;;;15.00;5.03;;;;;;;7.45;58.90;99808.31;5095735;28;20027;-57
2023/03/04 02:26:25;;;;;;;12.48;5.07;;;;;;;7.70;58.10;99807.84;5097414;28;20424;-57
2023/03/04 02:28:52;;;;;;;14.77;5.88;;;;;;;7.64;58.60;99803.59;5097420;28;20046;-57
2023/03/04 02:31:37;;;;;;;10.05;4.82;;;;;;;8.03;57.64;99809.81;5095950;28;20028;-57
2023/03/04 02:34:19;;;;;;;13.00;5.03;;;;;;;7.69;58.66;99806.13;5111912;28;20036;-58
2023/03/04 02:36:47;;;;;;;14.00;4.72;;;;;;;7.81;58.27;99804.13;5109148;28;20035;-57
2023/03/04 02:39:24;;;;;;;10.35;4.68;;;;;;;7.88;58.05;99802.28;5112012;28;20117;-57
2023/03/04 02:41:53;;;;;;;14.40;4.90;;;;;;;7.97;57.83;99793.38;5110188;28;20047;-57
2023/03/04 02:44:30;;;;;;;11.82;4.05;;;;;;;8.03;57.61;99803.72;5101640;28;20483;-57
2023/03/04 02:46:57;;;;;;;10.18;4.22;;;;;;;8.33;56.77;99791.72;5090806;28;20044;-57
2023/03/04 02:49:25;;;;;;;13.00;4.80;;;;;;;8.17;57.30;99792.94;5098408;28;20039;-57
2023/03/04 02:52:00;;;;;;;17.30;4.45;;;;;;;8.08;57.46;99797.50;5097904;28;20035;-56
2023/03/04 02:54:25;;;;;;;11.60;4.72;;;;;;;8.27;57.00;99802.34;5097323;28;20031;-56
2023/03/04 02:56:56;;;;;;;10.75;4.30;;;;;;;8.02;57.45;99797.63;5110026;28;20048;-57
2023/03/04 02:59:22;;;;;;;12.80;4.35;;;;;;;8.29;56.86;99800.53;5111811;28;20031;-57
2023/03/04 03:01:48;;;;;;;12.70;4.05;;;;;;;8.34;56.86;99796.09;5109907;28;20039;-55
2023/03/04 03:04:14;;;;;;;13.02;4.07;;;;;;;8.27;57.10;99794.50;5105359;28;20062;-56
2023/03/04 03:06:40;;;;;;;11.68;4.40;;;;;;;8.02;57.71;99791.50;5097620;28;20097;-56
2023/03/04 03:09:06;;;;;;;13.05;4.38;;;;;;;7.88;57.92;99791.81;5096715;28;20040;-57
2023/03/04 03:11:31;;;;;;;13.52;4.38;;;;;;;7.98;57.66;99798.59;5101277;28;20024;-57
2023/03/04 03:13:57;;;;;;;15.00;4.07;;;;;;;7.89;58.04;99791.75;5093969;28;20035;-57
2023/03/04 03:16:23;;;;;;;9.25;3.70;;;;;;;8.18;57.28;99782.47;5088724;28;20067;-57
2023/03/04 03:18:49;;;;;;;13.32;4.43;;;;;;;8.40;56.77;99782.88;5101517;28;20401;-57
2023/03/04 03:21:14;;;;;;;11.07;3.95;;;;;;;8.43;56.54;99779.34;5105630;28;20032;-57
2023/03/04 03:23:40;;;;;;;10.18;4.03;;;;;;;8.41;56.58;99789.84;5097889;28;20119;-57
2023/03/04 03:26:05;;;;;;;9.52;3.63;;;;;;;8.30;56.73;99784.81;5096085;28;20032;-57
2023/03/04 03:28:31;;;;;;;11.32;3.80;;;;;;;8.28;57.04;99798.81;5106468;28;20506;-58
2023/03/04 03:30:56;;;;;;;14.77;4.10;;;;;;;8.51;56.60;99785.28;5109692;28;20093;-56
2023/03/04 03:33:22;;;;;;;12.65;3.67;;;;;;;8.69;56.10;99781.34;5109831;28;20035;-57
2023/03/04 03:35:48;;;;;;;14.90;3.88;;;;;;;8.33;56.99;99776.88;5109063;28;20039;-55
2023/03/04 03:38:13;;;;;;;11.00;3.50;;;;;;;8.48;56.69;99770.47;5109588;28;20054;-56
2023/03/04 03:40:39;;;;;;;9.73;3.35;;;;;;;8.49;56.35;99768.72;5105969;28;20036;-56
2023/03/04 03:43:04;;;;;;;12.95;4.22;;;;;;;8.37;56.88;99773.34;5086842;28;20044;-56
2023/03/04 03:45:30;;;;;;;9.63;3.50;;;;;;;8.43;56.90;99768.88;5097766;28;20038;-56
2023/03/04 03:47:55;;;;;;;12.98;3.50;;;;;;;8.72;55.98;99763.81;5095933;28;20482;-55
2023/03/04 03:50:21;;;;;;;14.23;3.80;;;;;;;8.39;56.70;99768.94;5095894;28;20040;-56
2023/03/04 03:52:46;;;;;;;14.63;4.40;;;;;;;8.47;56.65;99768.78;5095743;28;20143;-56
2023/03/04 03:55:12;;;;;;;14.85;3.80;;;;;;;8.57;56.33;99780.72;5095262;28;20475;-57
2023/03/04 03:57:37;;;;;;;13.38;3.47;;;;;;;8.36;56.95;99765.50;5096345;28;20028;-53
2023/03/04 04:00:07;;;;;;;9.95;3.55;;;;;;;8.49;56.48;99772.19;5095234;28;20028;-58
2023/03/04 04:02:33;;;;;;;13.70;3.50;;;;;;;8.43;56.53;99771.50;5094958;28;20036;-57
2023/03/04 04:04:58;;;;;;;11.65;3.60;;;;;;;8.63;56.28;99767.50;5096795;28;20049;-56
2023/03/04 04:07:24;;;;;;;8.75;3.30;;;;;;;8.47;56.28;99766.16;5094653;28;20035;-57
2023/03/04 04:09:50;;;;;;;12.40;3.17;;;;;;;8.80;55.79;99776.72;5091071;28;20040;-57
2023/03/04 04:12:17;;;;;;;10.77;3.42;;;;;;;8.68;56.11;99770.03;5088648;28;20025;-55
2023/03/04 04:14:42;;;;;;;13.82;3.42;;;;;;;8.71;56.05;99772.56;5107039;28;20019;-55
2023/03/04 04:17:09;;;;;;;10.48;3.38;;;;;;;8.63;55.90;99769.28;5109201;28;20100;-58
2023/03/04 04:19:34;;;;;;;10.75;3.70;;;;;;;8.62;55.91;99762.31;5109454;28;20074;-56
2023/03/04 04:22:00;;;;;;;11.18;3.40;;;;;;;8.64;55.68;99771.84;5108534;28;20059;-56
2023/03/04 04:24:25;;;;;;;13.65;3.65;;;;;;;8.44;55.85;99757.50;5110563;28;20032;-57
2023/03/04 04:26:51;;;;;;;11.88;3.67;;;;;;;8.64;55.82;99760.50;5107667;28;20093;-57
2023/03/04 04:29:17;;;;;;;9.82;3.10;;;;;;;8.42;55.96;99757.56;5095207;28;20039;-56
2023/03/04 04:31:43;;;;;;;10.95;2.72;;;;;;;8.42;56.01;99744.47;5108457;28;20399;-57
2023/03/04 04:34:08;;;;;;;8.70;3.10;;;;;;;8.26;56.36;99753.50;5109060;28;20035;-57
2023/03/04 04:36:34;;;;;;;8.15;2.40;;;;;;;8.26;56.39;99753.50;5098351;28;20038;-58
2023/03/04 04:38:59;;;;;;;11.32;3.70;;;;;;;8.11;56.20;99759.94;5087861;28;20059;-57
2023/03/04 04:41:28;;;;;;;9.88;2.80;;;;;;;8.07;56.30;99748.69;5077373;28;20471;-57
2023/03/04 04:43:54;;;;;;;9.82;3.03;;;;;;;8.15;56.08;99758.97;5108410;28;20063;-57
2023/03/04 04:46:20;;;;;;;10.82;2.75;;;;;;;8.08;56.16;99762.63;5109854;28;20059;-57
2023/03/04 04:48:46;;;;;;;10.23;3.28;;;;;;;8.01;56.45;99764.50;5108376;28;20031;-56
2023/03/04 04:51:12;;;;;;;7.85;2.85;;;;;;;8.13;56.05;99761.59;5095019;28;20036;-58
2023/03/04 04:53:37;;;;;;;11.23;3.00;;;;;;;7.90;56.52;99762.13;5092778;28;20044;-57
2023/03/04 04:56:15;;;;;;;7.78;2.97;;;;;;;7.71;56.85;99771.22;5108046;28;20057;-56
2023/03/04 04:58:41;;;;;;;10.52;2.80;;;;;;;7.54;57.11;99766.31;5099885;28;20036;-57
2023/03/04 05:01:07;;;;;;;10.75;3.00;;;;;;;7.78;56.55;99770.22;5094147;28;20119;-56
2023/03/04 05:03:34;;;;;;;9.95;2.75;;;;;;;7.46;57.31;99760.38;5107904;28;20102;-56
2023/03/04 05:06:00;;;;;;;9.57;2.97;;;;;;;7.67;56.56;99764.34;5091778;28;20029;-56
2023/03/04 05:08:26;;;;;;;8.55;2.63;;;;;;;7.58;56.72;99754.91;5093361;28;20036;-57
2023/03/04 05:10:52;;;;;;;10.50;3.25;;;;;;;7.62;56.64;99759.19;5102981;28;20498;-56
2023/03/04 05:13:18;;;;;;;7.47;2.78;;;;;;;7.61;56.70;99753.97;5097284;28;20032;-57
2023/03/04 05:15:44;;;;;;;11.15;2.70;;;;;;;7.60;56.72;99753.13;5106653;28;20382;-58
2023/03/04 05:18:10;;;;;;;12.30;2.78;;;;;;;7.39;57.35;99753.53;5095852;28;20039;-57
2023/03/04 05:20:35;;;;;;;9.38;2.50;;;;;;;7.45;57.07;99755.16;5097029;28;20036;-58
2023/03/04 05:23:01;;;;;;;9.80;2.17;;;;;;;7.27;57.58;99753.75;5099264;28;20054;-57
2023/03/04 05:25:26;;;;;;;7.15;2.50;;;;;;;7.13;57.74;99754.00;5117583;28;20038;-57
2023/03/04 05:27:52;;;;;;;7.10;2.47;;;;;;;7.41;57.07;99749.97;5110024;28;20027;-57
2023/03/04 05:30:17;;;;;;;8.75;3.60;;;;;;;7.12;57.60;99754.88;5095541;28;20093;-54
2023/03/04 05:32:43;;;;;;;7.30;3.08;;;;;;;7.50;56.73;99740.25;5096070;28;20044;-55
2023/03/04 05:35:08;;;;;;;12.10;3.38;;;;;;;7.50;56.65;99751.59;5089127;28;20038;-57
2023/03/04 05:37:34;;;;;;;9.63;2.70;;;;;;;7.34;57.06;99753.63;5096809;28;20534;-56
2023/03/04 05:39:59;;;;;;;13.20;3.08;;;;;;;7.24;57.09;99762.50;5104646;28;20052;-56
2023/03/04 05:42:25;;;;;;;10.57;2.92;;;;;;;7.46;56.83;99749.94;5096007;28;20032;-56
2023/03/04 05:44:50;;;;;;;8.52;2.67;;;;;;;7.62;56.43;99756.56;5116224;28;20038;-56
2023/03/04 05:47:16;;;;;;;11.93;3.88;;;;;;;7.81;56.00;99761.44;5116721;27;20046;-56
2023/03/04 05:49:43;;;;;;;13.02;4.85;;;;;;;7.65;56.17;99755.63;5100981;28;20044;-56
2023/03/04 05:52:09;;;;;;;12.00;4.65;;;;;;;7.80;56.09;99759.72;5113136;28;20047;-57
2023/03/04 05:54:34;;;;;;;15.55;4.85;;;;;;;7.79;55.84;99763.22;5102137;28;20028;-57
2023/03/04 05:57:01;;;;;;;10.00;3.25;;;;;;;7.98;55.33;99761.06;5094853;28;20040;-56
2023/03/04 05:59:26;;;;;;;10.32;3.33;;;;;;;7.81;55.62;99761.44;5094498;28;20036;-57
2023/03/04 06:01:52;;;;;;;11.38;3.58;;;;;;;8.17;54.92;99765.03;5095170;28;20039;-57
2023/03/04 06:04:17;;;;;;;10.95;2.90;;;;;;;8.34;54.51;99762.91;5093772;28;20036;-57
2023/03/04 06:06:45;;;;;;;11.88;3.17;;;;;;;8.25;54.69;99764.88;5095391;28;20552;-57
2023/03/04 06:09:11;;;;;;;7.22;2.42;;;;;;;8.29;54.41;99759.53;5099099;28;20537;-57
2023/03/04 06:11:36;;;;;;;8.50;2.40;;;;;;;8.06;54.62;99757.44;5095466;28;20036;-56
2023/03/04 06:14:02;;;;;;;9.38;2.90;;;;;;;8.33;54.38;99755.09;5107198;28;20062;-56
2023/03/04 06:16:27;;;;;;;7.15;2.60;;;;;;;8.45;53.93;99757.44;5094250;28;20035;-56
2023/03/04 06:18:53;;;;;;;14.48;3.95;;;;;;;8.33;54.11;99760.31;5095132;28;20032;-56
2023/03/04 06:21:18;;;;;;;10.82;3.20;;;;;;;8.46;53.85;99753.97;5105111;28;20126;-56
2023/03/04 06:23:44;;;;;;;8.20;2.85;;;;;;;8.49;53.47;99758.25;5099853;28;20388;-57
2023/03/04 06:26:14;;;;;;;11.77;3.15;;;;;;;8.56;53.69;99757.22;5096132;28;20044;-57
2023/03/04 06:28:43;;;;;;;10.98;3.58;;;;;;;8.38;54.13;99759.38;5105617;28;20395;-58
2023/03/04 06:31:09;;;;;;;12.90;3.63;;;;;;;8.45;53.97;99764.44;5091009;28;20019;-57
2023/03/04 06:33:34;;;;;;;10.98;3.47;;;;;;;8.67;53.47;99764.84;5102240;28;20028;-56
2023/03/04 06:36:00;;;;;;;10.32;3.13;;;;;;;8.61;53.66;99766.66;5097376;28;20031;-57
2023/03/04 06:38:26;;;;;;;7.38;2.67;;;;;;;8.82;53.08;99769.72;5097329;28;20441;-57
2023/03/04 06:40:51;;;;;;;10.30;3.30;;;;;;;8.62;53.77;99770.19;5088803;28;20040;-56
2023/03/04 06:43:17;;;;;;;11.95;3.45;;;;;;;8.53;53.94;99776.47;5109844;28;20032;-56
2023/03/04 06:45:43;;;;;;;10.10;3.40;;;;;;;8.69;53.69;99781.34;5098246;28;20080;-57
2023/03/04 06:48:08;;;;;;;12.10;4.13;;;;;;;8.29;54.56;99784.84;5110478;28;20038;-57
2023/03/04 06:50:34;;;;;;;11.93;3.58;;;;;;;8.53;54.16;99781.69;5093589;28;20040;-57
2023/03/04 06:52:59;;;;;;;10.25;3.70;;;;;;;8.51;54.13;99786.13;5102697;28;20024;-57
2023/03/04 06:55:25;;;;;;;9.02;2.90;;;;;;;8.87;53.27;99781.78;5109436;28;20110;-57
2023/03/04 06:57:50;;;;;;;9.65;2.83;;;;;;;8.51;53.91;99778.28;5098496;28;20032;-55
2023/03/04 07:00:17;;;;;;;16.98;3.22;;;;;;;8.61;53.63;99779.78;5095089;28;20114;-58
2023/03/04 07:02:42;;;;;;;11.60;3.15;;;;;;;8.73;53.64;99772.53;5099023;28;20118;-57
2023/03/04 07:05:10;;;;;;;10.25;2.72;;;;;;;8.79;53.23;99775.00;5105224;28;20112;-56
2023/03/04 07:07:35;;;;;;;11.68;3.72;;;;;;;8.98;53.16;99780.69;5099993;28;20043;-57
2023/03/04 07:10:01;;;;;;;10.50;3.47;;;;;;;8.96;53.11;99774.59;5101922;28;20037;-57
2023/03/04 07:12:26;;;;;;;9.73;3.70;;;;;;;8.83;53.14;99777.53;5102852;28;20035;-55
2023/03/04 07:14:51;;;;;;;10.57;2.72;;;;;;;8.99;52.80;99777.16;5095081;28;20105;-57
2023/03/04 07:17:17;;;;;;;7.57;3.00;;;;;;;9.09;52.54;99776.84;5096070;28;20036;-57
2023/03/04 07:19:43;;;;;;;12.02;3.60;;;;;;;8.93;52.95;99772.91;5094441;28;20028;-56
2023/03/04 07:22:09;;;;;;;13.52;3.80;;;;;;;8.80;52.96;99774.09;5102465;28;20067;-56
2023/03/04 07:24:34;;;;;;;12.00;3.05;;;;;;;9.08;52.35;99775.16;5103442;28;20070;-58
2023/03/04 07:27:00;;;;;;;10.55;3.00;;;;;;;8.91;52.18;99782.56;5091930;28;20036;-57
2023/03/04 07:29:26;;;;;;;10.23;3.72;;;;;;;8.98;52.42;99783.31;5097348;28;20085;-58
2023/03/04 07:31:51;;;;;;;11.82;3.60;;;;;;;9.28;51.76;99790.38;5096619;28;20035;-57
2023/03/04 07:34:17;;;;;;;13.88;3.22;;;;;;;9.38;51.57;99793.63;5106436;28;20047;-56
2023/03/04 07:36:43;;;;;;;7.00;2.70;;;;;;;9.22;51.50;99784.44;5094277;28;20361;-57
2023/03/04 07:39:10;;;;;;;9.00;3.20;;;;;;;9.33;51.21;99783.25;5102359;28;20039;-58
2023/03/04 07:41:36;;;;;;;11.52;3.92;;;;;;;9.17;51.31;99786.28;5103825;28;20073;-63
2023/03/04 07:44:03;;;;;;;12.80;4.85;;;;;;;9.46;50.60;99788.19;5101411;28;20119;-62
2023/03/04 07:46:29;;;;;;;8.13;2.90;;;;;;;9.53;50.42;99789.72;5104165;28;20043;-56
2023/03/04 07:48:55;;;;;;;8.50;2.80;;;;;;;9.42;50.12;99794.41;5108734;28;20040;-60
2023/03/04 07:51:22;;;;;;;6.95;2.35;;;;;;;9.23;49.74;99791.41;5100173;28;20055;-58
2023/03/04 07:53:51;;;;;;;9.45;2.72;;;;;;;9.51;49.83;99781.91;5088623;28;20104;-58
2023/03/04 07:56:20;;;;;;;9.75;3.35;;;;;;;9.21;50.09;99803.66;5086126;28;20027;-56
2023/03/04 07:58:46;;;;;;;13.45;4.10;;;;;;;9.49;49.66;99796.81;5100220;28;20084;-57
2023/03/04 08:01:15;;;;;;;16.88;3.88;;;;;;;9.55;48.90;99790.56;5092687;28;20063;-57
2023/03/04 08:03:41;;;;;;;11.82;3.88;;;;;;;9.10;49.74;99791.72;5105083;28;20390;-58
2023/03/04 08:06:08;;;;;;;15.95;4.40;;;;;;;9.23;49.14;99797.50;5112502;28;20031;-57
2023/03/04 08:08:35;;;;;;;15.55;4.40;;;;;;;9.43;49.64;99793.50;5109608;28;20125;-57
2023/03/04 08:11:04;;;;;;;8.13;2.78;;;;;;;9.52;48.25;99801.97;5092806;28;20032;-59
2023/03/04 08:13:29;;;;;;;10.93;3.35;;;;;;;9.23;48.77;99796.66;5103318;28;20421;-57
2023/03/04 08:15:55;;;;;;;11.68;3.47;;;;;;;9.40;49.03;99804.94;5114050;28;20032;-58
2023/03/04 08:18:21;;;;;;;8.00;2.85;;;;;;;9.23;49.28;99804.50;5112814;28;20031;-56
2023/03/04 08:20:46;;;;;;;6.80;2.00;;;;;;;8.79;48.89;99796.81;5097430;28;20047;-58
2023/03/04 08:23:12;;;;;;;12.20;3.20;;;;;;;9.15;48.39;99819.56;5097228;28;20067;-58
2023/03/04 08:25:39;;;;;;;6.07;2.38;;;;;;;8.73;47.36;99810.06;5108779;28;20043;-57
2023/03/04 08:28:05;;;;;;;11.27;3.30;;;;;;;9.02;48.18;99814.63;5101979;28;20107;-58
2023/03/04 08:30:31;;;;;;;8.57;2.72;;;;;;;8.97;48.00;99808.63;5107573;28;20028;-59
2023/03/04 08:32:56;;;;;;;11.23;3.08;;;;;;;9.02;46.92;99819.00;5107512;28;20120;-58
2023/03/04 08:35:22;;;;;;;10.82;3.10;;;;;;;9.11;46.38;99801.28;5093903;28;20039;-59
2023/03/04 08:37:47;;;;;;;5.18;1.52;;;;;;;8.54;45.27;99809.63;5093702;28;20119;-58
2023/03/04 08:40:13;;;;;;;11.57;3.40;;;;;;;9.17;45.69;99808.13;5099951;28;20028;-59
2023/03/04 08:42:40;;;;;;;8.43;2.50;;;;;;;9.34;45.69;99807.72;5095343;28;20028;-58
2023/03/04 08:45:06;;;;;;;10.25;2.72;;;;;;;9.36;45.25;99813.78;5116599;28;20031;-58
2023/03/04 08:47:32;;;;;;;8.85;2.65;;;;;;;9.08;44.03;99813.59;5118013;28;20035;-59
2023/03/04 08:49:57;;;;;;;4.82;1.50;;;;;;;8.92;44.43;99807.88;5115829;28;20031;-57
2023/03/04 08:52:23;;;;;;;3.30;1.40;;;;;;;8.97;44.38;99816.47;5095648;28;20028;-59
2023/03/04 08:54:48;;;;;;;6.45;2.30;;;;;;;9.36;44.03;99809.38;5096082;28;20032;-58
2023/03/04 08:57:14;;;;;;;6.50;1.35;;;;;;;9.17;43.63;99818.59;5096836;28;20581;-58
2023/03/04 08:59:39;;;;;;;3.65;1.58;;;;;;;9.36;43.66;99811.16;5110765;28;20061;-58
2023/03/04 09:02:05;;;;;;;15.52;3.47;;;;;;;9.48;42.25;99818.69;5105048;28;20459;-58
2023/03/04 09:04:31;;;;;;;5.28;1.70;;;;;;;9.59;42.51;99829.78;5106495;27;20478;-58
2023/03/04 09:06:56;;;;;;;4.50;1.33;;;;;;;9.15;41.23;99820.41;5112023;28;20490;-57
2023/03/04 09:09:22;;;;;;;5.53;1.27;;;;;;;9.32;41.27;99835.72;5098462;28;20093;-57
2023/03/04 09:11:47;;;;;;;4.50;1.60;;;;;;;9.33;40.70;99842.69;5101652;28;20051;-58
2023/03/04 09:14:13;;;;;;;3.75;1.90;;;;;;;9.22;39.80;99835.09;5095980;28;20040;-58
2023/03/04 09:16:38;;;;;;;3.38;1.30;;;;;;;8.91;37.03;99834.97;5094162;28;20028;-58
2023/03/04 09:19:04;;;;;;;5.13;1.40;;;;;;;8.68;35.19;99845.97;5098350;28;20044;-58
2023/03/04 09:21:30;;;;;;;5.28;1.15;;;;;;;8.64;35.92;99836.47;5098214;28;20043;-58
2023/03/04 09:23:55;;;;;;;5.63;2.70;;;;;;;8.81;35.68;99828.22;5099185;28;20116;-58
2023/03/04 09:26:23;;;;;;;7.90;3.15;;;;;;;8.78;33.70;99830.94;5094811;28;20063;-58
2023/03/04 09:28:54;;;;;;;2.40;0.80;;;;;;;8.69;34.42;99838.97;5100293;28;20032;-58
2023/03/04 09:31:21;;;;;;;2.67;0.80;;;;;;;8.79;35.24;99846.59;5095116;28;20036;-58
2023/03/04 09:33:46;;;;;;;2.97;1.00;;;;;;;8.57;33.91;99827.00;5093775;28;20044;-58
2023/03/04 09:36:14;;;;;;;3.67;0.98;;;;;;;8.91;33.63;99849.84;5114082;28;20092;-58
2023/03/04 09:38:40;;;;;;;4.88;1.33;;;;;;;9.22;34.01;99842.97;5103444;28;20059;-58
2023/03/04 09:41:16;;;;;;;2.60;0.90;;;;;;;8.92;31.53;99836.69;5095065;28;20036;-58
2023/03/04 09:43:43;;;;;;;1.73;0.85;;;;;;;9.03;32.76;99836.44;5093571;28;20024;-59
2023/03/04 09:46:17;;;;;;;3.28;1.13;;;;;;;9.08;31.99;99847.66;5093819;28;20028;-58
2023/03/04 09:48:49;;;;;;;5.60;1.17;;;;;;;8.80;31.84;99877.13;5094478;28;20093;-58
2023/03/04 09:51:43;;;;;;;1.58;0.70;;;;;;;8.42;31.24;99841.31;5109370;28;20046;-59
2023/03/04 09:54:26;;;;;;;4.60;0.60;;;;;;;9.10;30.56;99838.88;5094292;28;20035;-59
2023/03/04 09:56:58;;;;;;;1.92;0.50;;;;;;;9.38;31.53;99825.09;5094678;28;20028;-58
2023/03/04 09:59:42;;;;;;;1.98;0.90;;;;;;;9.55;31.03;99830.75;5094302;28;20482;-60
2023/03/04 10:02:47;;;;;;;3.33;1.30;;;;;;;9.43;30.87;99833.69;5101226;28;20039;-59
2023/03/04 10:05:18;;;;;;;7.88;2.03;;;;;;;9.53;31.68;99827.28;5102062;28;20055;-59
2023/03/04 10:07:54;;;;;;;23.42;7.88;;;;;;;9.73;30.81;99847.75;5094778;28;20038;-59
2023/03/04 10:10:31;;;;;;;13.15;6.07;;;;;;;9.72;31.28;99847.81;5100262;28;20111;-58
2023/03/04 10:13:00;;;;;;;8.65;3.05;;;;;;;9.44;31.29;99834.56;5095906;28;20045;-60
2023/03/04 10:15:52;;;;;;;11.35;5.07;;;;;;;9.90;31.07;99831.59;5094688;28;20459;-59
2023/03/04 10:18:23;;;;;;;7.95;3.63;;;;;;;9.91;30.66;99859.53;5095453;28;20031;-59
2023/03/04 10:20:57;;;;;;;9.85;3.85;;;;;;;9.92;30.19;99823.66;5105738;28;20047;-60
2023/03/04 10:23:28;;;;;;;8.40;3.40;;;;;;;10.26;29.54;99849.84;5099163;28;20034;-59
2023/03/04 10:25:54;;;;;;;8.40;3.17;;;;;;;9.98;31.06;99834.00;5106100;28;20035;-59
2023/03/04 10:28:31;;;;;;;7.90;1.90;;;;;;;9.50;30.46;99874.59;5104422;28;20057;-59
2023/03/04 10:31:18;;;;;;;9.43;3.38;;;;;;;9.71;31.16;99839.09;5102219;28;20042;-60
2023/03/04 10:33:44;;;;;;;5.78;0.90;;;;;;;9.40;31.58;99839.00;5093989;28;20475;-59
2023/03/04 10:36:27;;;;;;;3.05;1.00;;;;;;;9.21;29.84;99848.22;5077323;28;20043;-60
2023/03/04 10:38:57;;;;;;;7.72;0.70;;;;;;;9.03;30.19;99866.13;5095134;28;20090;-60
2023/03/04 10:41:26;;;;;;;4.00;1.17;;;;;;;8.87;30.90;99860.38;5097588;28;20035;-59
2023/03/04 10:44:02;;;;;;;2.40;0.60;;;;;;;8.82;30.76;99853.53;5112945;28;20031;-60
2023/03/04 10:46:28;;;;;;;4.78;0.70;;;;;;;9.03;31.82;99858.28;5097568;28;20387;-60
2023/03/04 10:48:54;;;;;;;3.50;0.80;;;;;;;9.25;31.86;99855.97;5101365;28;20071;-60
2023/03/04 10:51:25;;;;;;;3.33;0.63;;;;;;;9.55;31.81;99858.75;5112041;28;20427;-59
2023/03/04 10:53:59;;;;;;;4.55;0.70;;;;;;;9.44;32.33;99864.25;5114352;28;20485;-59
2023/03/04 10:56:56;;;;;;;4.93;1.35;;;;;;;8.87;32.45;99898.81;5115465;28;20153;-59
2023/03/04 10:59:45;;;;;;;12.30;2.65;;;;;;;8.61;33.39;99888.91;5109932;28;20031;-58
2023/03/04 11:02:26;;;;;;;2.30;0.90;;;;;;;8.45;33.96;99877.88;5103795;28;20402;-59
2023/03/04 11:05:13;;;;;;;1.17;0.68;;;;;;;8.84;33.68;99870.06;5103652;28;20035;-60
2023/03/04 11:07:44;;;;;;;2.15;0.80;;;;;;;9.15;34.21;99872.84;5110346;28;20043;-59
2023/03/04 11:10:14;;;;;;;2.50;0.60;;;;;;;8.62;34.16;99873.19;5107750;28;20039;-60
2023/03/04 11:12:40;;;;;;;5.22;1.40;;;;;;;9.22;33.97;99878.81;5104876;28;20413;-60
2023/03/04 11:15:18;;;;;;;3.53;1.27;;;;;;;8.59;34.52;99898.56;5105620;28;20035;-60
2023/03/04 11:17:53;;;;;;;5.13;1.70;;;;;;;9.10;33.94;99886.06;5104610;28;20020;-60
2023/03/04 11:20:33;;;;;;;2.35;0.82;;;;;;;8.72;33.35;99878.19;5094089;28;20050;-60
2023/03/04 11:23:04;;;;;;;3.25;0.63;;;;;;;8.45;32.30;99875.28;5094574;28;20032;-59
2023/03/04 11:25:41;;;;;;;1.80;0.63;;;;;;;8.75;31.05;99884.25;5093212;28;20047;-60
2023/03/04 11:28:35;;;;;;;0.80;0.40;;;;;;;8.46;29.10;99890.09;5110314;28;20039;-60
2023/03/04 11:31:07;;;;;;;3.22;0.90;;;;;;;8.37;27.78;99882.41;5077413;28;20539;-59
2023/03/04 11:33:46;;;;;;;5.27;1.63;;;;;;;8.26;26.52;99915.75;5106191;28;20043;-59
2023/03/04 11:36:33;;;;;;;7.60;2.47;;;;;;;8.11;27.04;99878.56;5094103;28;20024;-59
2023/03/04 11:39:02;;;;;;;6.65;1.25;;;;;;;8.63;28.41;99871.41;5101763;28;20051;-59
2023/03/04 11:41:34;;;;;;;9.70;3.10;;;;;;;8.45;28.01;99884.88;5094261;28;20031;-60